createdAt,value
2023-01-04T00:03:16.149Z,7.48
2023-01-04T00:08:17.489Z,8.37
2023-01-04T00:13:19.214Z,8.79
2023-01-04T00:18:20.468Z,9.13
2023-01-04T00:23:21.745Z,9.34
2023-01-04T00:28:23.094Z,9.54
2023-01-04T00:33:24.347Z,8.24
2023-01-04T00:38:25.650Z,6.62
2023-01-04T00:43:27.483Z,5.62
2023-01-04T00:48:29.895Z,5.63
2023-01-04T00:53:31.163Z,7.09
2023-01-04T00:58:32.413Z,7.90
2023-01-04T01:03:38.522Z,8.33
2023-01-04T01:08:40.304Z,8.60
2023-01-04T01:13:41.911Z,8.66
2023-01-04T01:18:44.792Z,8.86
2023-01-04T01:23:47.097Z,8.40
2023-01-04T01:28:49.012Z,6.62
2023-01-04T01:33:52.113Z,6.07
2023-01-04T01:38:54.403Z,7.27
2023-01-04T01:44:01.704Z,8.01
2023-01-04T01:49:42.319Z,8.38
2023-01-04T01:54:59.157Z,8.80
2023-01-04T02:00:08.331Z,8.94
2023-01-04T02:05:10.437Z,7.28
2023-01-04T02:10:12.235Z,5.70
2023-01-04T02:15:13.923Z,4.70
2023-01-04T02:20:20.895Z,4.72
2023-01-04T02:25:43.692Z,6.28
2023-01-04T02:30:48.290Z,7.22
2023-01-04T02:35:58.711Z,7.69
2023-01-04T02:41:29.081Z,8.04
2023-01-04T02:46:35.798Z,8.32
2023-01-04T02:51:37.870Z,7.82
2023-01-04T02:57:04.561Z,6.00
2023-01-04T03:02:31.384Z,4.61
2023-01-04T03:07:54.585Z,4.49
2023-01-04T03:13:21.147Z,6.06
2023-01-04T03:18:27.118Z,6.88
2023-01-04T03:23:52.915Z,7.39
2023-01-04T03:29:18.091Z,7.82
2023-01-04T03:34:38.277Z,8.12
2023-01-04T03:40:19.994Z,6.97
2023-01-04T03:45:48.528Z,4.98
2023-01-04T03:51:03.622Z,3.84
2023-01-04T03:56:07.740Z,3.89
2023-01-04T04:01:09.834Z,5.43
2023-01-04T04:06:30.399Z,6.06
2023-01-04T04:11:32.103Z,6.29
2023-01-04T04:16:33.579Z,6.67
2023-01-04T04:21:36.289Z,7.23
2023-01-04T04:26:37.754Z,7.55
2023-01-04T04:31:39.132Z,7.77
2023-01-04T04:36:40.438Z,7.91
2023-01-04T04:41:42.042Z,6.46
2023-01-04T04:46:44.690Z,4.51
2023-01-04T04:51:46.614Z,3.33
2023-01-04T04:56:49.033Z,3.43
2023-01-04T05:01:50.541Z,5.33
2023-01-04T05:06:52.259Z,6.33
2023-01-04T05:12:11.777Z,6.77
2023-01-04T05:17:13.014Z,7.13
2023-01-04T05:22:14.324Z,7.45
2023-01-04T05:27:15.906Z,7.21
2023-01-04T05:32:17.182Z,5.23
2023-01-04T05:37:18.809Z,3.76
2023-01-04T05:42:27.224Z,3.63
2023-01-04T05:47:29.106Z,4.81
2023-01-04T05:52:30.818Z,5.70
2023-01-04T05:57:32.074Z,6.41
2023-01-04T06:02:33.988Z,6.82
2023-01-04T06:07:35.611Z,7.07
2023-01-04T06:12:37.619Z,7.29
2023-01-04T06:17:39.370Z,6.61
2023-01-04T06:22:40.967Z,4.69
2023-01-04T06:27:42.265Z,3.52
2023-01-04T06:32:43.544Z,3.34
2023-01-04T06:37:44.861Z,4.74
2023-01-04T06:42:46.342Z,5.56
2023-01-04T06:47:47.692Z,6.11
2023-01-04T06:52:49.006Z,6.52
2023-01-04T06:57:53.931Z,6.85
2023-01-04T07:03:12.781Z,7.18
2023-01-04T07:08:16.550Z,6.82
2023-01-04T07:13:17.957Z,5.13
2023-01-04T07:18:19.252Z,4.04
2023-01-04T07:23:20.733Z,3.30
2023-01-04T07:28:40.693Z,3.39
2023-01-04T07:33:42.079Z,5.29
2023-01-04T07:38:43.642Z,6.33
2023-01-04T07:43:45.319Z,6.97
2023-01-04T07:48:46.798Z,7.42
2023-01-04T07:53:48.385Z,6.61
2023-01-04T07:58:49.800Z,5.08
2023-01-04T08:03:52.693Z,4.16
2023-01-04T08:08:54.018Z,4.19
2023-01-04T08:13:55.347Z,6.11
2023-01-04T08:19:11.329Z,7.33
2023-01-04T08:24:17.896Z,7.94
2023-01-04T08:29:19.555Z,8.47
2023-01-04T08:34:20.877Z,7.71
2023-01-04T08:39:22.267Z,6.04
2023-01-04T08:44:24.839Z,5.04
2023-01-04T08:49:26.270Z,5.14
2023-01-04T08:54:27.643Z,7.01
2023-01-04T08:59:29.065Z,7.97
2023-01-04T09:04:30.664Z,8.54
2023-01-04T09:09:32.080Z,7.86
2023-01-04T09:14:34.815Z,6.44
2023-01-04T09:19:36.261Z,5.62
2023-01-04T09:24:37.697Z,5.14
2023-01-04T09:29:38.951Z,5.76
2023-01-04T09:34:40.226Z,8.89
2023-01-04T09:39:41.852Z,10.45
2023-01-04T09:45:22.726Z,9.09
2023-01-04T09:50:23.384Z,8.63
2023-01-04T09:55:37.316Z,10.67
2023-01-04T10:00:46.361Z,9.05
2023-01-04T10:05:48.127Z,9.12
2023-01-04T10:11:11.083Z,10.43
2023-01-04T10:17:01.238Z,8.51
2023-01-04T10:22:00.665Z,8.66
2023-01-04T10:27:11.157Z,9.83
2023-01-04T10:32:21.870Z,10.38
2023-01-04T10:37:29.830Z,8.61
2023-01-04T10:42:38.834Z,9.42
2023-01-04T10:48:07.077Z,10.02
2023-01-04T10:53:35.301Z,9.87
2023-01-04T10:58:47.150Z,8.55
2023-01-04T11:03:51.611Z,10.11
2023-01-04T11:08:58.865Z,8.84
2023-01-04T11:14:00.890Z,9.16
2023-01-04T11:19:06.681Z,9.37
2023-01-04T11:29:44.591Z,9.97
2023-01-04T11:34:47.678Z,8.41
2023-01-04T11:39:49.015Z,8.82
2023-01-04T11:45:35.225Z,9.48
2023-01-04T11:50:45.157Z,8.30
2023-01-04T11:55:46.418Z,9.75
2023-01-04T12:00:53.407Z,8.32
2023-01-04T12:05:55.262Z,8.36
2023-01-04T12:10:59.486Z,10.54
2023-01-04T12:16:13.499Z,9.50
2023-01-04T12:21:21.441Z,7.82
2023-01-04T12:26:23.026Z,9.15
2023-01-04T12:31:27.469Z,9.04
2023-01-04T12:36:47.700Z,7.68
2023-01-04T12:42:06.868Z,8.46
2023-01-04T12:47:48.663Z,8.96
2023-01-04T12:53:11.247Z,7.81
2023-01-04T12:58:58.571Z,8.98
2023-01-04T13:04:02.542Z,8.06
2023-01-04T13:09:23.650Z,7.99
2023-01-04T13:14:48.466Z,8.55
2023-01-04T13:19:50.196Z,7.67
2023-01-04T13:24:52.389Z,8.49
2023-01-04T13:29:54.397Z,8.43
2023-01-04T13:35:00.889Z,7.63
2023-01-04T13:40:12.485Z,8.48
2023-01-04T13:45:45.591Z,8.93
2023-01-04T13:51:05.844Z,9.07
2023-01-04T13:56:29.174Z,7.91
2023-01-04T14:01:36.548Z,8.71
2023-01-04T14:06:46.479Z,9.27
2023-01-04T14:12:04.074Z,8.08
2023-01-04T14:17:08.278Z,8.72
2023-01-04T14:22:36.268Z,9.43
2023-01-04T14:27:44.642Z,9.37
2023-01-04T14:33:11.264Z,8.24
2023-01-04T14:38:18.268Z,9.03
2023-01-04T14:43:45.976Z,9.42
2023-01-04T14:48:47.221Z,9.57
2023-01-04T14:53:50.302Z,9.41
2023-01-04T14:58:51.539Z,8.07
2023-01-04T15:03:52.817Z,8.37
2023-01-04T15:08:54.291Z,9.05
2023-01-04T15:13:55.600Z,9.13
2023-01-04T15:18:56.931Z,9.04
2023-01-04T15:23:58.697Z,8.97
2023-01-04T15:29:00.007Z,8.86
2023-01-04T15:34:01.921Z,8.84
2023-01-04T15:39:04.815Z,8.93
2023-01-04T15:44:09.795Z,9.22
2023-01-04T15:49:16.890Z,9.42
2023-01-04T15:54:20.925Z,9.65
2023-01-04T15:59:22.711Z,9.67
2023-01-04T16:04:24.080Z,9.58
2023-01-04T16:09:25.440Z,9.72
2023-01-04T16:14:27.036Z,9.88
2023-01-04T16:19:31.419Z,9.82
2023-01-04T16:29:54.085Z,9.88
2023-01-04T16:34:55.435Z,9.88
2023-01-04T16:40:12.297Z,9.97
2023-01-04T16:45:14.619Z,9.91
2023-01-04T16:50:16.267Z,9.56
2023-01-04T16:55:23.626Z,9.69
2023-01-04T17:00:25.513Z,9.84
2023-01-04T17:05:26.747Z,9.59
2023-01-04T17:10:29.855Z,9.62
2023-01-04T17:15:42.811Z,9.78
2023-01-04T17:20:52.766Z,9.89
2023-01-04T17:26:00.618Z,9.83
2023-01-04T17:31:13.785Z,9.91
2023-01-04T17:36:17.406Z,9.92
2023-01-04T17:41:22.492Z,10.10
2023-01-04T17:46:24.212Z,10.26
2023-01-04T17:51:27.101Z,10.33
2023-01-04T17:56:32.208Z,10.35
2023-01-04T18:01:34.958Z,10.27
2023-01-04T18:06:36.886Z,10.23
2023-01-04T18:11:38.438Z,10.27
2023-01-04T18:16:55.087Z,10.41
2023-01-04T18:21:57.589Z,10.58
2023-01-04T18:27:21.000Z,10.62
2023-01-04T18:32:22.632Z,10.75
2023-01-04T18:37:23.905Z,10.76
2023-01-04T18:42:25.091Z,10.80
2023-01-04T18:47:27.292Z,10.70
2023-01-04T18:52:28.533Z,10.79
2023-01-04T18:57:29.907Z,10.89
2023-01-04T19:02:31.356Z,10.89
2023-01-04T19:07:40.115Z,10.99
2023-01-04T19:12:43.454Z,11.11
2023-01-04T19:17:44.974Z,11.20
2023-01-04T19:22:46.323Z,11.11
2023-01-04T19:27:47.682Z,11.16
2023-01-04T19:32:49.006Z,11.22
2023-01-04T19:37:50.549Z,11.28
2023-01-04T19:42:51.789Z,11.28
2023-01-04T19:47:53.427Z,11.39
2023-01-04T19:52:54.720Z,11.45
2023-01-04T19:57:56.375Z,11.62
2023-01-04T20:02:57.869Z,11.62
2023-01-04T20:07:59.437Z,11.66
2023-01-04T20:13:01.092Z,11.82
2023-01-04T20:18:02.592Z,11.90
2023-01-04T20:23:05.145Z,11.92
2023-01-04T20:28:06.436Z,11.98
2023-01-04T20:33:08.924Z,12.10
2023-01-04T20:38:11.476Z,12.04
2023-01-04T20:43:30.824Z,11.95
2023-01-04T20:48:32.183Z,11.92
2023-01-04T20:53:35.640Z,12.05
2023-01-04T20:58:38.110Z,12.11
2023-01-04T21:03:40.992Z,12.16
2023-01-04T21:08:45.071Z,12.20
2023-01-04T21:13:46.906Z,12.32
2023-01-04T21:18:48.307Z,12.41
2023-01-04T21:23:56.173Z,12.45
2023-01-04T21:28:59.109Z,12.33
2023-01-04T21:34:01.329Z,12.20
2023-01-04T21:39:03.005Z,12.16
2023-01-04T21:44:04.494Z,12.30
2023-01-04T21:49:06.021Z,12.52
2023-01-04T21:54:07.644Z,12.39
2023-01-04T21:59:09.063Z,12.36
2023-01-04T22:04:10.398Z,12.40
2023-01-04T22:09:12.060Z,12.52
2023-01-04T22:14:14.516Z,12.62
2023-01-04T22:19:15.817Z,12.66
2023-01-04T22:24:17.456Z,12.72
2023-01-04T22:29:20.501Z,12.79
2023-01-04T22:34:24.136Z,12.79
2023-01-04T22:39:25.440Z,12.63
2023-01-04T22:44:26.827Z,12.70
2023-01-04T22:49:28.191Z,12.76
2023-01-04T22:54:32.391Z,12.72
2023-01-04T22:59:33.689Z,12.76
2023-01-04T23:04:34.987Z,12.86
2023-01-04T23:09:36.284Z,12.97
2023-01-04T23:14:37.858Z,13.00
2023-01-04T23:19:39.171Z,12.98
2023-01-04T23:24:41.577Z,13.09
2023-01-04T23:29:43.443Z,13.14
2023-01-04T23:34:44.731Z,13.10
2023-01-04T23:39:48.131Z,13.18
2023-01-04T23:44:49.388Z,13.09
2023-01-04T23:49:50.626Z,13.04
2023-01-04T23:54:51.809Z,13.17
2023-01-04T23:59:53.674Z,13.30
